sensor_id;sensor_type;location;lat;lon;timestamp;P1;durP1;ratioP1;P2;durP2;ratioP2
69358;SDS011;56520;49.066;8.660;2023-04-06T00:00:22;5.53;;;2.20;;
69358;SDS011;56520;49.066;8.660;2023-04-06T00:02:48;4.13;;;2.05;;
69358;SDS011;56520;49.066;8.660;2023-04-06T00:05:13;6.00;;;2.20;;
69358;SDS011;56520;49.066;8.660;2023-04-06T00:07:39;4.80;;;2.10;;
69358;SDS011;56520;49.066;8.660;2023-04-06T00:10:05;5.18;;;2.15;;
69358;SDS011;56520;49.066;8.660;2023-04-06T00:12:31;3.67;;;1.75;;
69358;SDS011;56520;49.066;8.660;2023-04-06T00:14:57;15.57;;;1.55;;
69358;SDS011;56520;49.066;8.660;2023-04-06T00:17:22;3.38;;;1.33;;
69358;SDS011;56520;49.066;8.660;2023-04-06T00:19:48;5.80;;;1.92;;
69358;SDS011;56520;49.066;8.660;2023-04-06T00:22:13;3.60;;;1.45;;
69358;SDS011;56520;49.066;8.660;2023-04-06T00:24:39;3.25;;;1.52;;
69358;SDS011;56520;49.066;8.660;2023-04-06T00:27:05;3.17;;;1.48;;
69358;SDS011;56520;49.066;8.660;2023-04-06T00:29:30;5.97;;;2.42;;
69358;SDS011;56520;49.066;8.660;2023-04-06T00:31:55;5.68;;;1.63;;
69358;SDS011;56520;49.066;8.660;2023-04-06T00:34:21;5.18;;;1.92;;
69358;SDS011;56520;49.066;8.660;2023-04-06T00:39:12;4.07;;;1.60;;
69358;SDS011;56520;49.066;8.660;2023-04-06T00:41:38;2.95;;;1.42;;
69358;SDS011;56520;49.066;8.660;2023-04-06T00:44:05;4.75;;;1.90;;
69358;SDS011;56520;49.066;8.660;2023-04-06T00:46:30;4.05;;;1.48;;
69358;SDS011;56520;49.066;8.660;2023-04-06T00:48:56;3.80;;;1.80;;
69358;SDS011;56520;49.066;8.660;2023-04-06T00:51:22;4.18;;;1.70;;
69358;SDS011;56520;49.066;8.660;2023-04-06T00:53:47;5.70;;;2.08;;
69358;SDS011;56520;49.066;8.660;2023-04-06T00:58:38;2.15;;;1.13;;
69358;SDS011;56520;49.066;8.660;2023-04-06T01:01:04;4.75;;;1.75;;
69358;SDS011;56520;49.066;8.660;2023-04-06T01:03:30;4.38;;;1.70;;
69358;SDS011;56520;49.066;8.660;2023-04-06T01:05:56;3.72;;;1.65;;
69358;SDS011;56520;49.066;8.660;2023-04-06T01:08:23;2.53;;;1.02;;
69358;SDS011;56520;49.066;8.660;2023-04-06T01:10:49;2.42;;;0.95;;
69358;SDS011;56520;49.066;8.660;2023-04-06T01:13:15;3.75;;;1.90;;
69358;SDS011;56520;49.066;8.660;2023-04-06T01:15:40;3.42;;;1.60;;
69358;SDS011;56520;49.066;8.660;2023-04-06T01:18:07;2.40;;;1.15;;
69358;SDS011;56520;49.066;8.660;2023-04-06T01:20:35;4.03;;;1.50;;
69358;SDS011;56520;49.066;8.660;2023-04-06T01:23:00;3.00;;;1.40;;
69358;SDS011;56520;49.066;8.660;2023-04-06T01:25:26;3.00;;;1.15;;
69358;SDS011;56520;49.066;8.660;2023-04-06T01:27:52;4.88;;;1.95;;
69358;SDS011;56520;49.066;8.660;2023-04-06T01:30:17;3.20;;;1.45;;
69358;SDS011;56520;49.066;8.660;2023-04-06T01:32:43;3.67;;;1.60;;
69358;SDS011;56520;49.066;8.660;2023-04-06T01:35:08;4.13;;;2.10;;
69358;SDS011;56520;49.066;8.660;2023-04-06T01:37:34;4.70;;;1.98;;
69358;SDS011;56520;49.066;8.660;2023-04-06T01:40:00;3.65;;;1.63;;
69358;SDS011;56520;49.066;8.660;2023-04-06T01:42:25;7.00;;;1.75;;
69358;SDS011;56520;49.066;8.660;2023-04-06T01:44:51;3.90;;;1.75;;
69358;SDS011;56520;49.066;8.660;2023-04-06T01:47:17;4.03;;;1.67;;
69358;SDS011;56520;49.066;8.660;2023-04-06T01:49:42;4.07;;;1.70;;
69358;SDS011;56520;49.066;8.660;2023-04-06T01:52:07;3.92;;;1.48;;
69358;SDS011;56520;49.066;8.660;2023-04-06T01:54:33;4.07;;;1.63;;
69358;SDS011;56520;49.066;8.660;2023-04-06T01:56:58;3.78;;;1.42;;
69358;SDS011;56520;49.066;8.660;2023-04-06T01:59:24;3.83;;;1.52;;
69358;SDS011;56520;49.066;8.660;2023-04-06T02:01:49;6.15;;;2.55;;
69358;SDS011;56520;49.066;8.660;2023-04-06T02:04:15;3.47;;;1.60;;
69358;SDS011;56520;49.066;8.660;2023-04-06T02:06:40;3.20;;;1.50;;
69358;SDS011;56520;49.066;8.660;2023-04-06T02:09:06;4.45;;;2.22;;
69358;SDS011;56520;49.066;8.660;2023-04-06T02:11:31;5.72;;;1.80;;
69358;SDS011;56520;49.066;8.660;2023-04-06T02:13:57;6.07;;;2.30;;
69358;SDS011;56520;49.066;8.660;2023-04-06T02:16:22;4.63;;;1.73;;
69358;SDS011;56520;49.066;8.660;2023-04-06T02:18:49;2.90;;;1.40;;
69358;SDS011;56520;49.066;8.660;2023-04-06T02:21:14;5.15;;;2.10;;
69358;SDS011;56520;49.066;8.660;2023-04-06T02:23:44;4.13;;;1.77;;
69358;SDS011;56520;49.066;8.660;2023-04-06T02:26:10;4.03;;;1.85;;
69358;SDS011;56520;49.066;8.660;2023-04-06T02:28:36;4.97;;;1.92;;
69358;SDS011;56520;49.066;8.660;2023-04-06T02:31:01;5.47;;;1.95;;
69358;SDS011;56520;49.066;8.660;2023-04-06T02:33:27;9.10;;;1.92;;
69358;SDS011;56520;49.066;8.660;2023-04-06T02:35:52;4.70;;;2.10;;
69358;SDS011;56520;49.066;8.660;2023-04-06T02:38:17;3.42;;;1.60;;
69358;SDS011;56520;49.066;8.660;2023-04-06T02:40:43;5.25;;;1.80;;
69358;SDS011;56520;49.066;8.660;2023-04-06T02:43:08;5.38;;;2.70;;
69358;SDS011;56520;49.066;8.660;2023-04-06T02:45:34;5.07;;;1.90;;
69358;SDS011;56520;49.066;8.660;2023-04-06T02:47:59;4.35;;;1.67;;
69358;SDS011;56520;49.066;8.660;2023-04-06T02:50:25;4.28;;;1.65;;
69358;SDS011;56520;49.066;8.660;2023-04-06T02:52:52;5.85;;;2.25;;
69358;SDS011;56520;49.066;8.660;2023-04-06T02:55:18;5.07;;;2.10;;
69358;SDS011;56520;49.066;8.660;2023-04-06T02:57:44;4.18;;;1.65;;
69358;SDS011;56520;49.066;8.660;2023-04-06T03:00:10;3.28;;;1.63;;
69358;SDS011;56520;49.066;8.660;2023-04-06T03:02:36;4.15;;;1.90;;
69358;SDS011;56520;49.066;8.660;2023-04-06T03:05:02;4.90;;;1.98;;
69358;SDS011;56520;49.066;8.660;2023-04-06T03:07:28;7.00;;;2.50;;
69358;SDS011;56520;49.066;8.660;2023-04-06T03:09:53;4.20;;;1.77;;
69358;SDS011;56520;49.066;8.660;2023-04-06T03:12:19;6.03;;;2.05;;
69358;SDS011;56520;49.066;8.660;2023-04-06T03:14:45;5.85;;;2.30;;
69358;SDS011;56520;49.066;8.660;2023-04-06T03:17:10;4.00;;;1.95;;
69358;SDS011;56520;49.066;8.660;2023-04-06T03:19:36;3.70;;;1.92;;
69358;SDS011;56520;49.066;8.660;2023-04-06T03:22:01;5.63;;;1.85;;
69358;SDS011;56520;49.066;8.660;2023-04-06T03:24:27;4.82;;;1.83;;
69358;SDS011;56520;49.066;8.660;2023-04-06T03:26:52;5.05;;;1.92;;
69358;SDS011;56520;49.066;8.660;2023-04-06T03:29:18;8.82;;;2.47;;
69358;SDS011;56520;49.066;8.660;2023-04-06T03:31:43;3.88;;;1.70;;
69358;SDS011;56520;49.066;8.660;2023-04-06T03:34:09;6.03;;;2.40;;
69358;SDS011;56520;49.066;8.660;2023-04-06T03:36:35;4.90;;;1.85;;
69358;SDS011;56520;49.066;8.660;2023-04-06T03:39:00;6.03;;;2.60;;
69358;SDS011;56520;49.066;8.660;2023-04-06T03:41:26;4.60;;;1.90;;
69358;SDS011;56520;49.066;8.660;2023-04-06T03:43:52;7.90;;;3.28;;
69358;SDS011;56520;49.066;8.660;2023-04-06T03:46:17;6.43;;;2.85;;
69358;SDS011;56520;49.066;8.660;2023-04-06T03:48:43;6.05;;;2.63;;
69358;SDS011;56520;49.066;8.660;2023-04-06T03:51:08;6.88;;;2.75;;
69358;SDS011;56520;49.066;8.660;2023-04-06T03:53:34;5.15;;;1.88;;
69358;SDS011;56520;49.066;8.660;2023-04-06T03:56:01;5.30;;;2.03;;
69358;SDS011;56520;49.066;8.660;2023-04-06T03:58:27;5.85;;;2.22;;
69358;SDS011;56520;49.066;8.660;2023-04-06T04:00:52;5.03;;;2.08;;
69358;SDS011;56520;49.066;8.660;2023-04-06T04:03:18;3.78;;;1.70;;
69358;SDS011;56520;49.066;8.660;2023-04-06T04:05:43;8.35;;;2.85;;
69358;SDS011;56520;49.066;8.660;2023-04-06T04:08:09;7.10;;;2.70;;
69358;SDS011;56520;49.066;8.660;2023-04-06T04:10:34;7.50;;;2.25;;
69358;SDS011;56520;49.066;8.660;2023-04-06T04:13:00;5.10;;;1.92;;
69358;SDS011;56520;49.066;8.660;2023-04-06T04:15:25;4.78;;;1.98;;
69358;SDS011;56520;49.066;8.660;2023-04-06T04:17:51;4.68;;;1.75;;
69358;SDS011;56520;49.066;8.660;2023-04-06T04:20:16;4.18;;;1.70;;
69358;SDS011;56520;49.066;8.660;2023-04-06T04:22:42;4.18;;;1.90;;
69358;SDS011;56520;49.066;8.660;2023-04-06T04:25:07;5.43;;;1.92;;
69358;SDS011;56520;49.066;8.660;2023-04-06T04:27:33;5.13;;;2.15;;
69358;SDS011;56520;49.066;8.660;2023-04-06T04:29:59;5.47;;;2.03;;
69358;SDS011;56520;49.066;8.660;2023-04-06T04:32:25;6.47;;;1.73;;
69358;SDS011;56520;49.066;8.660;2023-04-06T04:34:52;11.25;;;2.70;;
69358;SDS011;56520;49.066;8.660;2023-04-06T04:37:18;4.78;;;1.75;;
69358;SDS011;56520;49.066;8.660;2023-04-06T04:39:44;5.07;;;1.63;;
69358;SDS011;56520;49.066;8.660;2023-04-06T04:42:10;3.95;;;1.73;;
69358;SDS011;56520;49.066;8.660;2023-04-06T04:44:35;4.93;;;1.85;;
69358;SDS011;56520;49.066;8.660;2023-04-06T04:47:01;5.07;;;2.10;;
69358;SDS011;56520;49.066;8.660;2023-04-06T04:49:26;3.80;;;1.50;;
69358;SDS011;56520;49.066;8.660;2023-04-06T04:51:52;4.60;;;1.85;;
69358;SDS011;56520;49.066;8.660;2023-04-06T04:54:17;3.95;;;1.13;;
69358;SDS011;56520;49.066;8.660;2023-04-06T04:56:44;2.67;;;1.25;;
69358;SDS011;56520;49.066;8.660;2023-04-06T05:01:35;2.23;;;1.00;;
69358;SDS011;56520;49.066;8.660;2023-04-06T05:04:01;3.75;;;2.08;;
69358;SDS011;56520;49.066;8.660;2023-04-06T05:06:26;4.30;;;1.60;;
69358;SDS011;56520;49.066;8.660;2023-04-06T05:08:51;4.45;;;1.52;;
69358;SDS011;56520;49.066;8.660;2023-04-06T05:11:17;2.92;;;1.30;;
69358;SDS011;56520;49.066;8.660;2023-04-06T05:13:42;7.07;;;1.88;;
69358;SDS011;56520;49.066;8.660;2023-04-06T05:16:08;4.28;;;1.67;;
69358;SDS011;56520;49.066;8.660;2023-04-06T05:18:33;4.60;;;2.08;;
69358;SDS011;56520;49.066;8.660;2023-04-06T05:20:59;4.32;;;1.90;;
69358;SDS011;56520;49.066;8.660;2023-04-06T05:23:24;3.20;;;1.60;;
69358;SDS011;56520;49.066;8.660;2023-04-06T05:25:50;4.05;;;1.58;;
69358;SDS011;56520;49.066;8.660;2023-04-06T05:28:16;3.83;;;1.23;;
69358;SDS011;56520;49.066;8.660;2023-04-06T05:30:42;7.43;;;1.90;;
69358;SDS011;56520;49.066;8.660;2023-04-06T05:33:08;4.22;;;2.03;;
69358;SDS011;56520;49.066;8.660;2023-04-06T05:35:34;4.05;;;1.42;;
69358;SDS011;56520;49.066;8.660;2023-04-06T05:38:00;4.82;;;2.13;;
69358;SDS011;56520;49.066;8.660;2023-04-06T05:40:25;4.53;;;1.92;;
69358;SDS011;56520;49.066;8.660;2023-04-06T05:42:51;6.75;;;1.70;;
69358;SDS011;56520;49.066;8.660;2023-04-06T05:45:16;4.63;;;2.00;;
69358;SDS011;56520;49.066;8.660;2023-04-06T05:47:43;5.60;;;1.52;;
69358;SDS011;56520;49.066;8.660;2023-04-06T05:50:09;3.85;;;1.48;;
69358;SDS011;56520;49.066;8.660;2023-04-06T05:52:36;2.90;;;1.55;;
69358;SDS011;56520;49.066;8.660;2023-04-06T05:55:01;4.15;;;1.73;;
69358;SDS011;56520;49.066;8.660;2023-04-06T05:57:28;4.57;;;1.90;;
69358;SDS011;56520;49.066;8.660;2023-04-06T05:59:53;4.97;;;1.75;;
69358;SDS011;56520;49.066;8.660;2023-04-06T06:02:19;3.08;;;1.23;;
69358;SDS011;56520;49.066;8.660;2023-04-06T06:04:44;5.40;;;2.10;;
69358;SDS011;56520;49.066;8.660;2023-04-06T06:07:09;6.07;;;2.53;;
69358;SDS011;56520;49.066;8.660;2023-04-06T06:09:35;5.72;;;2.15;;
69358;SDS011;56520;49.066;8.660;2023-04-06T06:12:00;5.40;;;2.05;;
69358;SDS011;56520;49.066;8.660;2023-04-06T06:14:26;6.22;;;2.55;;
69358;SDS011;56520;49.066;8.660;2023-04-06T06:16:53;7.63;;;2.42;;
69358;SDS011;56520;49.066;8.660;2023-04-06T06:19:19;5.85;;;2.53;;
69358;SDS011;56520;49.066;8.660;2023-04-06T06:21:44;6.88;;;2.78;;
69358;SDS011;56520;49.066;8.660;2023-04-06T06:24:10;6.18;;;2.17;;
69358;SDS011;56520;49.066;8.660;2023-04-06T06:26:35;5.38;;;2.58;;
69358;SDS011;56520;49.066;8.660;2023-04-06T06:29:02;4.07;;;1.85;;
69358;SDS011;56520;49.066;8.660;2023-04-06T06:31:30;5.03;;;1.90;;
69358;SDS011;56520;49.066;8.660;2023-04-06T06:33:55;5.60;;;2.17;;
69358;SDS011;56520;49.066;8.660;2023-04-06T06:36:21;8.65;;;2.35;;
69358;SDS011;56520;49.066;8.660;2023-04-06T06:38:46;7.78;;;2.65;;
69358;SDS011;56520;49.066;8.660;2023-04-06T06:41:12;13.85;;;3.53;;
69358;SDS011;56520;49.066;8.660;2023-04-06T06:43:37;5.07;;;2.00;;
69358;SDS011;56520;49.066;8.660;2023-04-06T06:46:03;5.35;;;2.08;;
69358;SDS011;56520;49.066;8.660;2023-04-06T06:48:29;5.88;;;2.53;;
69358;SDS011;56520;49.066;8.660;2023-04-06T06:50:55;6.32;;;2.63;;
69358;SDS011;56520;49.066;8.660;2023-04-06T06:53:21;4.88;;;2.15;;
69358;SDS011;56520;49.066;8.660;2023-04-06T06:55:47;7.15;;;2.55;;
69358;SDS011;56520;49.066;8.660;2023-04-06T06:58:17;6.47;;;2.70;;
69358;SDS011;56520;49.066;8.660;2023-04-06T07:00:43;12.02;;;3.50;;
69358;SDS011;56520;49.066;8.660;2023-04-06T07:03:08;8.90;;;3.47;;
69358;SDS011;56520;49.066;8.660;2023-04-06T07:05:34;7.68;;;3.13;;
69358;SDS011;56520;49.066;8.660;2023-04-06T07:10:25;7.40;;;2.72;;
69358;SDS011;56520;49.066;8.660;2023-04-06T07:15:16;5.75;;;2.35;;
69358;SDS011;56520;49.066;8.660;2023-04-06T07:17:42;8.55;;;3.05;;
69358;SDS011;56520;49.066;8.660;2023-04-06T07:20:10;9.45;;;3.53;;
69358;SDS011;56520;49.066;8.660;2023-04-06T07:25:01;5.78;;;2.83;;
69358;SDS011;56520;49.066;8.660;2023-04-06T07:29:52;5.57;;;2.20;;
69358;SDS011;56520;49.066;8.660;2023-04-06T07:34:42;5.47;;;2.27;;
69358;SDS011;56520;49.066;8.660;2023-04-06T07:37:10;7.93;;;2.45;;
69358;SDS011;56520;49.066;8.660;2023-04-06T07:42:00;5.35;;;2.13;;
69358;SDS011;56520;49.066;8.660;2023-04-06T07:44:26;8.02;;;2.47;;
69358;SDS011;56520;49.066;8.660;2023-04-06T07:46:51;6.75;;;2.67;;
69358;SDS011;56520;49.066;8.660;2023-04-06T07:49:17;6.07;;;2.72;;
69358;SDS011;56520;49.066;8.660;2023-04-06T07:51:42;6.55;;;2.97;;
69358;SDS011;56520;49.066;8.660;2023-04-06T07:54:08;7.38;;;2.63;;
69358;SDS011;56520;49.066;8.660;2023-04-06T07:56:33;7.60;;;2.85;;
69358;SDS011;56520;49.066;8.660;2023-04-06T07:58:59;8.68;;;3.35;;
69358;SDS011;56520;49.066;8.660;2023-04-06T08:01:24;6.75;;;2.70;;
69358;SDS011;56520;49.066;8.660;2023-04-06T08:03:50;6.68;;;2.50;;
69358;SDS011;56520;49.066;8.660;2023-04-06T08:06:16;6.60;;;2.72;;
69358;SDS011;56520;49.066;8.660;2023-04-06T08:08:41;6.82;;;2.72;;
69358;SDS011;56520;49.066;8.660;2023-04-06T08:11:07;7.30;;;3.22;;
69358;SDS011;56520;49.066;8.660;2023-04-06T08:13:33;6.75;;;3.00;;
69358;SDS011;56520;49.066;8.660;2023-04-06T08:15:59;7.28;;;3.22;;
69358;SDS011;56520;49.066;8.660;2023-04-06T08:18:25;6.88;;;2.90;;
69358;SDS011;56520;49.066;8.660;2023-04-06T08:20:51;10.18;;;3.03;;
69358;SDS011;56520;49.066;8.660;2023-04-06T08:23:16;7.45;;;2.92;;
69358;SDS011;56520;49.066;8.660;2023-04-06T08:25:42;7.28;;;2.72;;
69358;SDS011;56520;49.066;8.660;2023-04-06T08:28:08;10.10;;;2.90;;
69358;SDS011;56520;49.066;8.660;2023-04-06T08:30:34;7.40;;;2.75;;
69358;SDS011;56520;49.066;8.660;2023-04-06T08:33:00;7.70;;;3.15;;
69358;SDS011;56520;49.066;8.660;2023-04-06T08:35:26;7.38;;;2.85;;
69358;SDS011;56520;49.066;8.660;2023-04-06T08:37:52;7.65;;;2.70;;
69358;SDS011;56520;49.066;8.660;2023-04-06T08:40:17;7.00;;;2.83;;
69358;SDS011;56520;49.066;8.660;2023-04-06T08:42:50;7.10;;;2.60;;
69358;SDS011;56520;49.066;8.660;2023-04-06T08:45:19;8.60;;;2.95;;
69358;SDS011;56520;49.066;8.660;2023-04-06T08:47:46;6.43;;;2.60;;
69358;SDS011;56520;49.066;8.660;2023-04-06T08:50:19;8.35;;;2.75;;
69358;SDS011;56520;49.066;8.660;2023-04-06T08:52:48;6.53;;;2.75;;
69358;SDS011;56520;49.066;8.660;2023-04-06T08:55:14;7.75;;;2.53;;
69358;SDS011;56520;49.066;8.660;2023-04-06T08:57:41;6.90;;;2.63;;
69358;SDS011;56520;49.066;8.660;2023-04-06T09:00:07;7.50;;;2.95;;
69358;SDS011;56520;49.066;8.660;2023-04-06T09:02:37;8.13;;;2.50;;
69358;SDS011;56520;49.066;8.660;2023-04-06T09:05:06;9.20;;;3.10;;
69358;SDS011;56520;49.066;8.660;2023-04-06T09:07:33;6.63;;;2.63;;
69358;SDS011;56520;49.066;8.660;2023-04-06T09:09:58;7.68;;;3.08;;
69358;SDS011;56520;49.066;8.660;2023-04-06T09:14:49;8.27;;;3.63;;
69358;SDS011;56520;49.066;8.660;2023-04-06T09:17:21;6.75;;;2.85;;
69358;SDS011;56520;49.066;8.660;2023-04-06T09:19:48;6.57;;;3.28;;
69358;SDS011;56520;49.066;8.660;2023-04-06T09:22:14;6.88;;;2.80;;
69358;SDS011;56520;49.066;8.660;2023-04-06T09:27:11;8.15;;;3.22;;
69358;SDS011;56520;49.066;8.660;2023-04-06T09:29:37;7.63;;;3.15;;
69358;SDS011;56520;49.066;8.660;2023-04-06T09:32:03;6.70;;;2.85;;
69358;SDS011;56520;49.066;8.660;2023-04-06T09:34:30;8.55;;;2.72;;
69358;SDS011;56520;49.066;8.660;2023-04-06T09:36:55;8.10;;;3.15;;
69358;SDS011;56520;49.066;8.660;2023-04-06T09:39:21;7.00;;;2.80;;
69358;SDS011;56520;49.066;8.660;2023-04-06T09:41:49;6.40;;;2.95;;
69358;SDS011;56520;49.066;8.660;2023-04-06T09:44:15;7.75;;;3.17;;
69358;SDS011;56520;49.066;8.660;2023-04-06T09:46:41;7.47;;;3.58;;
69358;SDS011;56520;49.066;8.660;2023-04-06T09:49:08;7.25;;;3.33;;
69358;SDS011;56520;49.066;8.660;2023-04-06T09:51:46;7.90;;;3.50;;
69358;SDS011;56520;49.066;8.660;2023-04-06T09:54:20;6.82;;;2.95;;
69358;SDS011;56520;49.066;8.660;2023-04-06T09:56:47;7.15;;;2.72;;
69358;SDS011;56520;49.066;8.660;2023-04-06T10:02:15;8.98;;;3.75;;
69358;SDS011;56520;49.066;8.660;2023-04-06T10:04:58;7.90;;;3.05;;
69358;SDS011;56520;49.066;8.660;2023-04-06T10:07:27;6.05;;;2.65;;
69358;SDS011;56520;49.066;8.660;2023-04-06T10:09:53;8.82;;;3.20;;
69358;SDS011;56520;49.066;8.660;2023-04-06T10:12:20;10.27;;;3.65;;
69358;SDS011;56520;49.066;8.660;2023-04-06T10:14:45;7.00;;;3.63;;
69358;SDS011;56520;49.066;8.660;2023-04-06T10:17:11;6.38;;;2.50;;
69358;SDS011;56520;49.066;8.660;2023-04-06T10:22:36;7.95;;;3.38;;
69358;SDS011;56520;49.066;8.660;2023-04-06T10:25:08;7.82;;;2.85;;
69358;SDS011;56520;49.066;8.660;2023-04-06T10:27:34;8.32;;;3.70;;
69358;SDS011;56520;49.066;8.660;2023-04-06T10:30:03;6.82;;;3.13;;
69358;SDS011;56520;49.066;8.660;2023-04-06T10:32:37;7.68;;;2.83;;
69358;SDS011;56520;49.066;8.660;2023-04-06T10:35:07;6.90;;;2.67;;
69358;SDS011;56520;49.066;8.660;2023-04-06T10:40:22;8.25;;;3.50;;
69358;SDS011;56520;49.066;8.660;2023-04-06T10:42:50;7.28;;;3.13;;
69358;SDS011;56520;49.066;8.660;2023-04-06T10:45:23;8.32;;;3.20;;
69358;SDS011;56520;49.066;8.660;2023-04-06T10:47:51;7.70;;;3.60;;
69358;SDS011;56520;49.066;8.660;2023-04-06T10:50:18;9.27;;;3.90;;
69358;SDS011;56520;49.066;8.660;2023-04-06T10:52:45;8.43;;;3.42;;
69358;SDS011;56520;49.066;8.660;2023-04-06T10:55:14;8.05;;;3.38;;
69358;SDS011;56520;49.066;8.660;2023-04-06T10:57:40;7.35;;;3.00;;
69358;SDS011;56520;49.066;8.660;2023-04-06T11:00:06;12.23;;;3.85;;
69358;SDS011;56520;49.066;8.660;2023-04-06T11:02:35;8.80;;;3.65;;
69358;SDS011;56520;49.066;8.660;2023-04-06T11:05:03;8.50;;;3.50;;
69358;SDS011;56520;49.066;8.660;2023-04-06T11:07:28;6.82;;;3.00;;
69358;SDS011;56520;49.066;8.660;2023-04-06T11:09:55;8.20;;;3.83;;
69358;SDS011;56520;49.066;8.660;2023-04-06T11:12:25;8.45;;;3.50;;
69358;SDS011;56520;49.066;8.660;2023-04-06T11:17:34;7.45;;;3.50;;
69358;SDS011;56520;49.066;8.660;2023-04-06T11:20:01;8.30;;;3.85;;
69358;SDS011;56520;49.066;8.660;2023-04-06T11:22:28;7.95;;;3.60;;
69358;SDS011;56520;49.066;8.660;2023-04-06T11:25:06;8.05;;;3.50;;
69358;SDS011;56520;49.066;8.660;2023-04-06T11:27:36;8.07;;;3.45;;
69358;SDS011;56520;49.066;8.660;2023-04-06T11:30:02;8.68;;;3.75;;
69358;SDS011;56520;49.066;8.660;2023-04-06T11:32:28;7.53;;;3.50;;
69358;SDS011;56520;49.066;8.660;2023-04-06T11:34:53;9.18;;;3.78;;
69358;SDS011;56520;49.066;8.660;2023-04-06T11:37:19;9.25;;;4.00;;
69358;SDS011;56520;49.066;8.660;2023-04-06T11:39:49;7.47;;;3.50;;
69358;SDS011;56520;49.066;8.660;2023-04-06T11:42:23;7.97;;;3.70;;
69358;SDS011;56520;49.066;8.660;2023-04-06T11:44:50;7.53;;;3.33;;
69358;SDS011;56520;49.066;8.660;2023-04-06T11:47:20;8.45;;;3.45;;
69358;SDS011;56520;49.066;8.660;2023-04-06T11:49:51;7.25;;;3.20;;
69358;SDS011;56520;49.066;8.660;2023-04-06T11:52:18;9.82;;;3.40;;
69358;SDS011;56520;49.066;8.660;2023-04-06T11:54:47;7.95;;;3.60;;
69358;SDS011;56520;49.066;8.660;2023-04-06T11:57:14;9.07;;;3.50;;
69358;SDS011;56520;49.066;8.660;2023-04-06T11:59:40;7.10;;;3.30;;
69358;SDS011;56520;49.066;8.660;2023-04-06T12:02:06;7.13;;;3.30;;
69358;SDS011;56520;49.066;8.660;2023-04-06T12:04:32;7.75;;;3.00;;
69358;SDS011;56520;49.066;8.660;2023-04-06T12:06:57;7.22;;;2.83;;
69358;SDS011;56520;49.066;8.660;2023-04-06T12:09:23;8.45;;;3.28;;
69358;SDS011;56520;49.066;8.660;2023-04-06T12:11:49;7.38;;;2.83;;
69358;SDS011;56520;49.066;8.660;2023-04-06T12:14:14;8.07;;;3.75;;
69358;SDS011;56520;49.066;8.660;2023-04-06T12:16:41;9.20;;;3.35;;
69358;SDS011;56520;49.066;8.660;2023-04-06T12:19:09;7.68;;;3.17;;
69358;SDS011;56520;49.066;8.660;2023-04-06T12:21:35;8.63;;;4.03;;
69358;SDS011;56520;49.066;8.660;2023-04-06T12:24:04;6.97;;;3.10;;
69358;SDS011;56520;49.066;8.660;2023-04-06T12:26:30;8.95;;;3.40;;
69358;SDS011;56520;49.066;8.660;2023-04-06T12:28:56;7.50;;;3.30;;
69358;SDS011;56520;49.066;8.660;2023-04-06T12:31:22;10.18;;;3.38;;
69358;SDS011;56520;49.066;8.660;2023-04-06T12:33:48;7.43;;;3.10;;
69358;SDS011;56520;49.066;8.660;2023-04-06T12:36:15;8.27;;;3.40;;
69358;SDS011;56520;49.066;8.660;2023-04-06T12:38:43;7.85;;;3.42;;
69358;SDS011;56520;49.066;8.660;2023-04-06T12:41:13;7.45;;;2.90;;
69358;SDS011;56520;49.066;8.660;2023-04-06T12:43:39;8.27;;;3.40;;
69358;SDS011;56520;49.066;8.660;2023-04-06T12:46:06;8.73;;;3.30;;
69358;SDS011;56520;49.066;8.660;2023-04-06T12:48:32;8.77;;;3.80;;
69358;SDS011;56520;49.066;8.660;2023-04-06T12:50:58;8.48;;;3.20;;
69358;SDS011;56520;49.066;8.660;2023-04-06T12:53:25;6.93;;;2.67;;
69358;SDS011;56520;49.066;8.660;2023-04-06T12:55:52;8.55;;;3.30;;
69358;SDS011;56520;49.066;8.660;2023-04-06T12:58:18;9.60;;;3.03;;
69358;SDS011;56520;49.066;8.660;2023-04-06T13:00:44;7.00;;;3.05;;
69358;SDS011;56520;49.066;8.660;2023-04-06T13:03:10;8.55;;;3.63;;
69358;SDS011;56520;49.066;8.660;2023-04-06T13:05:35;6.07;;;2.40;;
69358;SDS011;56520;49.066;8.660;2023-04-06T13:08:01;7.13;;;3.08;;
69358;SDS011;56520;49.066;8.660;2023-04-06T13:10:26;8.38;;;3.70;;
69358;SDS011;56520;49.066;8.660;2023-04-06T13:12:52;7.28;;;3.42;;
69358;SDS011;56520;49.066;8.660;2023-04-06T13:15:17;10.35;;;3.25;;
69358;SDS011;56520;49.066;8.660;2023-04-06T13:17:43;6.80;;;3.00;;
69358;SDS011;56520;49.066;8.660;2023-04-06T13:20:08;7.70;;;3.72;;
69358;SDS011;56520;49.066;8.660;2023-04-06T13:22:34;9.27;;;3.75;;
69358;SDS011;56520;49.066;8.660;2023-04-06T13:25:00;8.05;;;3.20;;
69358;SDS011;56520;49.066;8.660;2023-04-06T13:27:26;7.32;;;3.05;;
69358;SDS011;56520;49.066;8.660;2023-04-06T13:29:52;7.28;;;2.60;;
69358;SDS011;56520;49.066;8.660;2023-04-06T13:32:18;7.15;;;2.70;;
69358;SDS011;56520;49.066;8.660;2023-04-06T13:34:43;7.75;;;2.92;;
69358;SDS011;56520;49.066;8.660;2023-04-06T13:37:11;8.13;;;2.50;;
69358;SDS011;56520;49.066;8.660;2023-04-06T13:39:38;6.57;;;2.83;;
69358;SDS011;56520;49.066;8.660;2023-04-06T13:42:03;7.13;;;2.92;;
69358;SDS011;56520;49.066;8.660;2023-04-06T13:44:29;8.15;;;3.00;;
69358;SDS011;56520;49.066;8.660;2023-04-06T13:46:56;6.88;;;2.58;;
69358;SDS011;56520;49.066;8.660;2023-04-06T13:49:21;6.88;;;3.28;;
69358;SDS011;56520;49.066;8.660;2023-04-06T13:51:47;12.07;;;2.45;;
69358;SDS011;56520;49.066;8.660;2023-04-06T13:54:12;6.45;;;2.63;;
69358;SDS011;56520;49.066;8.660;2023-04-06T13:56:38;7.57;;;2.88;;
69358;SDS011;56520;49.066;8.660;2023-04-06T13:59:03;9.15;;;3.10;;
69358;SDS011;56520;49.066;8.660;2023-04-06T14:01:28;7.75;;;2.80;;
69358;SDS011;56520;49.066;8.660;2023-04-06T14:03:54;6.75;;;2.53;;
69358;SDS011;56520;49.066;8.660;2023-04-06T14:06:19;7.57;;;3.25;;
69358;SDS011;56520;49.066;8.660;2023-04-06T14:08:45;8.02;;;2.85;;
69358;SDS011;56520;49.066;8.660;2023-04-06T14:11:11;8.05;;;2.90;;
69358;SDS011;56520;49.066;8.660;2023-04-06T14:13:38;6.75;;;2.70;;
69358;SDS011;56520;49.066;8.660;2023-04-06T14:16:04;7.25;;;2.83;;
69358;SDS011;56520;49.066;8.660;2023-04-06T14:18:29;7.47;;;3.10;;
69358;SDS011;56520;49.066;8.660;2023-04-06T14:20:56;7.25;;;3.10;;
69358;SDS011;56520;49.066;8.660;2023-04-06T14:23:22;7.07;;;2.67;;
69358;SDS011;56520;49.066;8.660;2023-04-06T14:25:50;7.40;;;3.13;;
69358;SDS011;56520;49.066;8.660;2023-04-06T14:28:16;7.60;;;3.15;;
69358;SDS011;56520;49.066;8.660;2023-04-06T14:30:41;7.68;;;2.88;;
69358;SDS011;56520;49.066;8.660;2023-04-06T14:33:07;7.60;;;2.92;;
69358;SDS011;56520;49.066;8.660;2023-04-06T14:35:32;7.30;;;2.58;;
69358;SDS011;56520;49.066;8.660;2023-04-06T14:37:58;7.38;;;3.03;;
69358;SDS011;56520;49.066;8.660;2023-04-06T14:40:24;8.77;;;3.38;;
69358;SDS011;56520;49.066;8.660;2023-04-06T14:42:49;9.77;;;2.70;;
69358;SDS011;56520;49.066;8.660;2023-04-06T14:45:19;9.55;;;3.15;;
69358;SDS011;56520;49.066;8.660;2023-04-06T14:47:46;6.60;;;2.78;;
69358;SDS011;56520;49.066;8.660;2023-04-06T14:50:12;9.27;;;3.20;;
69358;SDS011;56520;49.066;8.660;2023-04-06T14:52:37;6.70;;;2.55;;
69358;SDS011;56520;49.066;8.660;2023-04-06T14:55:03;6.70;;;2.67;;
69358;SDS011;56520;49.066;8.660;2023-04-06T14:57:29;5.60;;;2.17;;
69358;SDS011;56520;49.066;8.660;2023-04-06T14:59:56;6.32;;;2.50;;
69358;SDS011;56520;49.066;8.660;2023-04-06T15:02:21;6.68;;;2.53;;
69358;SDS011;56520;49.066;8.660;2023-04-06T15:04:47;7.10;;;2.45;;
69358;SDS011;56520;49.066;8.660;2023-04-06T15:07:12;8.43;;;2.63;;
69358;SDS011;56520;49.066;8.660;2023-04-06T15:09:38;7.22;;;2.42;;
69358;SDS011;56520;49.066;8.660;2023-04-06T15:12:03;7.65;;;2.38;;
69358;SDS011;56520;49.066;8.660;2023-04-06T15:14:29;6.57;;;2.30;;
69358;SDS011;56520;49.066;8.660;2023-04-06T15:16:54;6.85;;;2.70;;
69358;SDS011;56520;49.066;8.660;2023-04-06T15:19:20;6.57;;;2.53;;